sensor_id;sensor_type;location;lat;lon;timestamp;pressure;altitude;pressure_sealevel;temperature;humidity
37206;BME280;23099;42.636;23.198;2023-04-07T00:00:43;91698.88;;;0.47;72.89
37206;BME280;23099;42.636;23.198;2023-04-07T00:03:09;91686.53;;;0.56;72.56
37206;BME280;23099;42.636;23.198;2023-04-07T00:05:37;91690.84;;;0.61;72.04
37206;BME280;23099;42.636;23.198;2023-04-07T00:08:03;91677.28;;;0.67;73.00
37206;BME280;23099;42.636;23.198;2023-04-07T00:10:30;91688.22;;;0.61;72.25
37206;BME280;23099;42.636;23.198;2023-04-07T00:12:58;91689.19;;;0.65;72.99
37206;BME280;23099;42.636;23.198;2023-04-07T00:15:25;91685.78;;;0.64;72.71
37206;BME280;23099;42.636;23.198;2023-04-07T00:17:52;91686.84;;;0.55;71.56
37206;BME280;23099;42.636;23.198;2023-04-07T00:20:18;91684.81;;;0.60;72.46
37206;BME280;23099;42.636;23.198;2023-04-07T00:22:45;91678.19;;;0.63;72.25
37206;BME280;23099;42.636;23.198;2023-04-07T00:25:12;91686.84;;;0.63;71.98
37206;BME280;23099;42.636;23.198;2023-04-07T00:27:38;91677.56;;;0.66;71.77
37206;BME280;23099;42.636;23.198;2023-04-07T00:30:07;91683.31;;;0.68;70.40
37206;BME280;23099;42.636;23.198;2023-04-07T00:32:34;91682.22;;;0.69;71.27
37206;BME280;23099;42.636;23.198;2023-04-07T00:35:01;91680.69;;;0.68;70.19
37206;BME280;23099;42.636;23.198;2023-04-07T00:37:27;91684.38;;;0.67;70.97
37206;BME280;23099;42.636;23.198;2023-04-07T00:39:54;91678.19;;;0.63;73.08
37206;BME280;23099;42.636;23.198;2023-04-07T00:42:22;91683.00;;;0.69;74.20
37206;BME280;23099;42.636;23.198;2023-04-07T00:44:48;91682.69;;;0.71;74.13
37206;BME280;23099;42.636;23.198;2023-04-07T00:47:17;91679.13;;;0.76;74.88
37206;BME280;23099;42.636;23.198;2023-04-07T00:49:43;91681.31;;;0.82;73.51
37206;BME280;23099;42.636;23.198;2023-04-07T00:52:11;91678.38;;;0.84;74.49
37206;BME280;23099;42.636;23.198;2023-04-07T00:54:38;91682.69;;;0.80;72.28
37206;BME280;23099;42.636;23.198;2023-04-07T00:57:06;91677.28;;;0.76;73.89
37206;BME280;23099;42.636;23.198;2023-04-07T00:59:33;91679.59;;;0.69;72.14
37206;BME280;23099;42.636;23.198;2023-04-07T01:02:03;91671.38;;;0.62;75.13
37206;BME280;23099;42.636;23.198;2023-04-07T01:04:36;91677.88;;;0.64;73.41
37206;BME280;23099;42.636;23.198;2023-04-07T01:07:08;91672.91;;;0.54;76.03
37206;BME280;23099;42.636;23.198;2023-04-07T01:09:41;91668.75;;;0.53;73.88
37206;BME280;23099;42.636;23.198;2023-04-07T01:12:15;91670.75;;;0.56;72.51
37206;BME280;23099;42.636;23.198;2023-04-07T01:14:46;91666.75;;;0.67;73.81
37206;BME280;23099;42.636;23.198;2023-04-07T01:17:16;91654.81;;;0.61;72.56
37206;BME280;23099;42.636;23.198;2023-04-07T01:19:52;91670.31;;;0.72;73.21
37206;BME280;23099;42.636;23.198;2023-04-07T01:22:24;91671.53;;;0.74;72.51
37206;BME280;23099;42.636;23.198;2023-04-07T01:25:11;91667.53;;;0.77;72.31
37206;BME280;23099;42.636;23.198;2023-04-07T01:27:51;91662.25;;;0.77;71.94
37206;BME280;23099;42.636;23.198;2023-04-07T01:30:22;91671.84;;;0.64;71.39
37206;BME280;23099;42.636;23.198;2023-04-07T01:32:51;91661.16;;;0.52;71.67
37206;BME280;23099;42.636;23.198;2023-04-07T01:35:19;91667.63;;;0.46;71.72
37206;BME280;23099;42.636;23.198;2023-04-07T01:37:47;91661.28;;;0.47;70.91
37206;BME280;23099;42.636;23.198;2023-04-07T01:40:15;91665.81;;;0.55;71.94
37206;BME280;23099;42.636;23.198;2023-04-07T01:42:43;91654.81;;;0.61;70.66
37206;BME280;23099;42.636;23.198;2023-04-07T01:45:11;91657.31;;;0.66;71.17
37206;BME280;23099;42.636;23.198;2023-04-07T01:47:40;91647.56;;;0.67;68.81
37206;BME280;23099;42.636;23.198;2023-04-07T01:50:08;91652.22;;;0.70;71.13
37206;BME280;23099;42.636;23.198;2023-04-07T01:52:36;91651.56;;;0.73;70.51
37206;BME280;23099;42.636;23.198;2023-04-07T01:55:03;91645.25;;;0.65;67.91
37206;BME280;23099;42.636;23.198;2023-04-07T01:57:30;91647.88;;;0.65;69.82
37206;BME280;23099;42.636;23.198;2023-04-07T01:59:57;91646.31;;;0.64;70.24
37206;BME280;23099;42.636;23.198;2023-04-07T02:02:24;91647.41;;;0.63;71.51
37206;BME280;23099;42.636;23.198;2023-04-07T02:04:54;91650.19;;;0.67;71.29
37206;BME280;23099;42.636;23.198;2023-04-07T02:07:29;91641.97;;;0.60;67.82
37206;BME280;23099;42.636;23.198;2023-04-07T02:09:59;91647.22;;;0.60;68.62
37206;BME280;23099;42.636;23.198;2023-04-07T02:12:28;91641.84;;;0.56;68.69
37206;BME280;23099;42.636;23.198;2023-04-07T02:14:57;91647.25;;;0.68;68.16
37206;BME280;23099;42.636;23.198;2023-04-07T02:17:25;91642.16;;;0.72;68.00
37206;BME280;23099;42.636;23.198;2023-04-07T02:19:55;91648.50;;;0.71;66.32
37206;BME280;23099;42.636;23.198;2023-04-07T02:22:23;91648.34;;;0.67;67.23
37206;BME280;23099;42.636;23.198;2023-04-07T02:24:51;91646.31;;;0.73;69.48
37206;BME280;23099;42.636;23.198;2023-04-07T02:27:17;91637.34;;;0.65;67.38
37206;BME280;23099;42.636;23.198;2023-04-07T02:29:44;91637.66;;;0.73;68.98
37206;BME280;23099;42.636;23.198;2023-04-07T02:32:11;91639.19;;;0.74;69.05
37206;BME280;23099;42.636;23.198;2023-04-07T02:34:38;91638.91;;;0.75;66.69
37206;BME280;23099;42.636;23.198;2023-04-07T02:37:06;91641.22;;;0.77;66.84
37206;BME280;23099;42.636;23.198;2023-04-07T02:39:32;91640.78;;;0.83;68.37
37206;BME280;23099;42.636;23.198;2023-04-07T02:41:59;91635.03;;;0.81;67.45
37206;BME280;23099;42.636;23.198;2023-04-07T02:44:26;91637.50;;;0.78;68.16
37206;BME280;23099;42.636;23.198;2023-04-07T02:46:53;91645.53;;;0.73;63.44
37206;BME280;23099;42.636;23.198;2023-04-07T02:49:19;91638.13;;;0.75;65.90
37206;BME280;23099;42.636;23.198;2023-04-07T02:51:46;91640.28;;;0.73;65.24
37206;BME280;23099;42.636;23.198;2023-04-07T02:54:14;91645.41;;;0.69;65.55
37206;BME280;23099;42.636;23.198;2023-04-07T02:56:40;91646.19;;;0.69;66.32
37206;BME280;23099;42.636;23.198;2023-04-07T02:59:07;91649.91;;;0.68;65.31
37206;BME280;23099;42.636;23.198;2023-04-07T03:01:34;91656.06;;;0.64;66.34
37206;BME280;23099;42.636;23.198;2023-04-07T03:04:00;91646.03;;;0.66;66.19
37206;BME280;23099;42.636;23.198;2023-04-07T03:06:27;91646.31;;;0.73;66.59
37206;BME280;23099;42.636;23.198;2023-04-07T03:08:54;91650.66;;;0.69;66.12
37206;BME280;23099;42.636;23.198;2023-04-07T03:11:22;91656.69;;;0.69;65.28
37206;BME280;23099;42.636;23.198;2023-04-07T03:13:49;91648.03;;;0.69;64.47
37206;BME280;23099;42.636;23.198;2023-04-07T03:16:16;91645.41;;;0.69;63.36
37206;BME280;23099;42.636;23.198;2023-04-07T03:18:42;91655.31;;;0.72;64.64
37206;BME280;23099;42.636;23.198;2023-04-07T03:21:09;91652.34;;;0.74;66.32
37206;BME280;23099;42.636;23.198;2023-04-07T03:23:36;91652.69;;;0.72;63.43
37206;BME280;23099;42.636;23.198;2023-04-07T03:26:03;91656.06;;;0.73;61.45
37206;BME280;23099;42.636;23.198;2023-04-07T03:28:31;91653.78;;;0.71;60.52
37206;BME280;23099;42.636;23.198;2023-04-07T03:30:57;91651.75;;;0.77;61.01
37206;BME280;23099;42.636;23.198;2023-04-07T03:33:24;91648.34;;;0.76;61.44
37206;BME280;23099;42.636;23.198;2023-04-07T03:35:51;91644.31;;;0.70;61.76
37206;BME280;23099;42.636;23.198;2023-04-07T03:38:17;91648.66;;;0.66;61.01
37206;BME280;23099;42.636;23.198;2023-04-07T03:40:44;91648.94;;;0.64;62.57
37206;BME280;23099;42.636;23.198;2023-04-07T03:43:11;91648.78;;;0.61;62.02
37206;BME280;23099;42.636;23.198;2023-04-07T03:45:41;91649.56;;;0.53;62.57
37206;BME280;23099;42.636;23.198;2023-04-07T03:48:08;91653.56;;;0.50;62.28
37206;BME280;23099;42.636;23.198;2023-04-07T03:50:36;91643.06;;;0.50;61.09
37206;BME280;23099;42.636;23.198;2023-04-07T03:53:03;91655.13;;;0.51;62.24
37206;BME280;23099;42.636;23.198;2023-04-07T03:55:30;91662.06;;;0.47;61.54
37206;BME280;23099;42.636;23.198;2023-04-07T03:57:57;91659.44;;;0.47;62.66
37206;BME280;23099;42.636;23.198;2023-04-07T04:00:24;91659.44;;;0.47;63.50
37206;BME280;23099;42.636;23.198;2023-04-07T04:02:52;91665.94;;;0.50;63.45
37206;BME280;23099;42.636;23.198;2023-04-07T04:05:19;91662.88;;;0.56;64.28
37206;BME280;23099;42.636;23.198;2023-04-07T04:07:45;91661.47;;;0.50;63.92
37206;BME280;23099;42.636;23.198;2023-04-07T04:10:12;91667.66;;;0.54;64.83
37206;BME280;23099;42.636;23.198;2023-04-07T04:12:40;91662.72;;;0.53;65.21
37206;BME280;23099;42.636;23.198;2023-04-07T04:15:08;91671.66;;;0.52;65.53
37206;BME280;23099;42.636;23.198;2023-04-07T04:17:35;91668.56;;;0.58;67.24
37206;BME280;23099;42.636;23.198;2023-04-07T04:20:03;91670.28;;;0.54;66.26
37206;BME280;23099;42.636;23.198;2023-04-07T04:22:30;91665.34;;;0.61;64.82
37206;BME280;23099;42.636;23.198;2023-04-07T04:24:57;91673.53;;;0.60;66.12
37206;BME280;23099;42.636;23.198;2023-04-07T04:27:24;91677.25;;;0.59;66.03
37206;BME280;23099;42.636;23.198;2023-04-07T04:29:51;91681.88;;;0.62;65.98
37206;BME280;23099;42.636;23.198;2023-04-07T04:32:18;91670.16;;;0.68;66.07
37206;BME280;23099;42.636;23.198;2023-04-07T04:34:45;91676.78;;;0.57;66.33
37206;BME280;23099;42.636;23.198;2023-04-07T04:37:13;91671.25;;;0.67;64.53
37206;BME280;23099;42.636;23.198;2023-04-07T04:39:40;91675.13;;;0.69;63.76
37206;BME280;23099;42.636;23.198;2023-04-07T04:42:06;91678.22;;;0.72;62.38
37206;BME280;23099;42.636;23.198;2023-04-07T04:44:33;91679.13;;;0.76;60.98
37206;BME280;23099;42.636;23.198;2023-04-07T04:47:01;91679.75;;;0.73;61.47
37206;BME280;23099;42.636;23.198;2023-04-07T04:49:27;91680.97;;;0.75;61.31
37206;BME280;23099;42.636;23.198;2023-04-07T04:51:54;91677.44;;;0.80;61.44
37206;BME280;23099;42.636;23.198;2023-04-07T04:54:22;91679.75;;;0.81;59.95
37206;BME280;23099;42.636;23.198;2023-04-07T04:56:49;91685.81;;;0.82;60.62
37206;BME280;23099;42.636;23.198;2023-04-07T04:59:15;91694.94;;;0.84;61.03
37206;BME280;23099;42.636;23.198;2023-04-07T05:01:42;91689.03;;;0.87;60.52
37206;BME280;23099;42.636;23.198;2023-04-07T05:04:09;91685.03;;;0.90;60.82
37206;BME280;23099;42.636;23.198;2023-04-07T05:06:35;91690.16;;;0.95;60.22
37206;BME280;23099;42.636;23.198;2023-04-07T05:09:02;91688.28;;;0.95;61.20
37206;BME280;23099;42.636;23.198;2023-04-07T05:11:30;91697.25;;;1.03;59.77
37206;BME280;23099;42.636;23.198;2023-04-07T05:13:57;91696.81;;;1.01;60.27
37206;BME280;23099;42.636;23.198;2023-04-07T05:16:24;91685.03;;;1.07;58.72
37206;BME280;23099;42.636;23.198;2023-04-07T05:18:50;91694.81;;;1.15;57.79
37206;BME280;23099;42.636;23.198;2023-04-07T05:21:17;91703.91;;;1.18;58.08
37206;BME280;23099;42.636;23.198;2023-04-07T05:23:44;91706.25;;;1.19;57.11
37206;BME280;23099;42.636;23.198;2023-04-07T05:26:11;91706.72;;;1.21;59.48
37206;BME280;23099;42.636;23.198;2023-04-07T05:28:39;91699.44;;;1.27;58.81
37206;BME280;23099;42.636;23.198;2023-04-07T05:31:05;91709.50;;;1.25;59.21
37206;BME280;23099;42.636;23.198;2023-04-07T05:33:32;91701.91;;;1.23;57.86
37206;BME280;23099;42.636;23.198;2023-04-07T05:35:59;91705.97;;;1.29;57.09
37206;BME280;23099;42.636;23.198;2023-04-07T05:38:26;91707.47;;;1.30;56.73
37206;BME280;23099;42.636;23.198;2023-04-07T05:40:52;91707.34;;;1.35;56.65
37206;BME280;23099;42.636;23.198;2023-04-07T05:43:19;91702.53;;;1.37;57.42
37206;BME280;23099;42.636;23.198;2023-04-07T05:45:47;91702.22;;;1.39;58.30
37206;BME280;23099;42.636;23.198;2023-04-07T05:48:14;91702.53;;;1.46;58.25
37206;BME280;23099;42.636;23.198;2023-04-07T05:50:41;91707.94;;;1.50;57.79
37206;BME280;23099;42.636;23.198;2023-04-07T05:53:08;91709.81;;;1.49;56.59
37206;BME280;23099;42.636;23.198;2023-04-07T05:55:34;91705.94;;;1.47;56.25
37206;BME280;23099;42.636;23.198;2023-04-07T05:58:01;91704.38;;;1.46;57.38
37206;BME280;23099;42.636;23.198;2023-04-07T06:00:28;91711.03;;;1.52;57.19
37206;BME280;23099;42.636;23.198;2023-04-07T06:02:56;91709.97;;;1.53;57.09
37206;BME280;23099;42.636;23.198;2023-04-07T06:05:22;91702.69;;;1.58;56.60
37206;BME280;23099;42.636;23.198;2023-04-07T06:07:49;91705.91;;;1.64;55.57
37206;BME280;23099;42.636;23.198;2023-04-07T06:10:16;91712.13;;;1.68;55.09
37206;BME280;23099;42.636;23.198;2023-04-07T06:12:43;91702.97;;;1.65;56.95
37206;BME280;23099;42.636;23.198;2023-04-07T06:15:10;91698.47;;;1.66;55.79
37206;BME280;23099;42.636;23.198;2023-04-07T06:17:36;91708.41;;;1.69;54.94
37206;BME280;23099;42.636;23.198;2023-04-07T06:20:06;91711.34;;;1.67;54.84
37206;BME280;23099;42.636;23.198;2023-04-07T06:22:33;91705.56;;;1.74;54.23
37206;BME280;23099;42.636;23.198;2023-04-07T06:25:00;91707.28;;;1.78;55.41
37206;BME280;23099;42.636;23.198;2023-04-07T06:27:26;91718.25;;;1.89;53.73
37206;BME280;23099;42.636;23.198;2023-04-07T06:29:53;91713.94;;;1.85;53.79
37206;BME280;23099;42.636;23.198;2023-04-07T06:32:20;91713.16;;;1.93;53.60
37206;BME280;23099;42.636;23.198;2023-04-07T06:34:46;91709.72;;;2.01;53.66
37206;BME280;23099;42.636;23.198;2023-04-07T06:37:14;91701.47;;;2.02;53.80
37206;BME280;23099;42.636;23.198;2023-04-07T06:39:41;91699.59;;;2.11;54.06
37206;BME280;23099;42.636;23.198;2023-04-07T06:42:08;91704.84;;;2.20;52.90
37206;BME280;23099;42.636;23.198;2023-04-07T06:44:34;91706.22;;;2.26;54.12
37206;BME280;23099;42.636;23.198;2023-04-07T06:47:01;91707.63;;;2.24;53.58
37206;BME280;23099;42.636;23.198;2023-04-07T06:49:28;91699.25;;;2.30;53.78
37206;BME280;23099;42.636;23.198;2023-04-07T06:51:55;91712.22;;;2.35;54.54
37206;BME280;23099;42.636;23.198;2023-04-07T06:54:23;91716.53;;;2.48;53.52
37206;BME280;23099;42.636;23.198;2023-04-07T06:56:50;91706.06;;;2.61;54.23
37206;BME280;23099;42.636;23.198;2023-04-07T06:59:16;91705.28;;;2.60;52.04
37206;BME280;23099;42.636;23.198;2023-04-07T07:01:43;91704.66;;;2.63;53.28
37206;BME280;23099;42.636;23.198;2023-04-07T07:04:10;91709.75;;;2.68;51.36
37206;BME280;23099;42.636;23.198;2023-04-07T07:25:08;91720.47;;;3.43;50.03
37206;BME280;23099;42.636;23.198;2023-04-07T07:27:35;91730.31;;;3.34;49.99
37206;BME280;23099;42.636;23.198;2023-04-07T07:30:01;91729.00;;;3.19;49.94
37206;BME280;23099;42.636;23.198;2023-04-07T07:32:28;91738.31;;;3.25;50.77
37206;BME280;23099;42.636;23.198;2023-04-07T07:34:55;91747.00;;;3.26;50.62
37206;BME280;23099;42.636;23.198;2023-04-07T07:37:21;91734.19;;;3.36;51.34
37206;BME280;23099;42.636;23.198;2023-04-07T07:39:48;91737.41;;;3.42;51.42
37206;BME280;23099;42.636;23.198;2023-04-07T07:42:16;91733.41;;;3.57;51.22
37206;BME280;23099;42.636;23.198;2023-04-07T07:44:43;91738.75;;;3.69;50.33
37206;BME280;23099;42.636;23.198;2023-04-07T07:47:10;91751.00;;;3.73;52.20
37206;BME280;23099;42.636;23.198;2023-04-07T07:49:36;91745.50;;;3.78;49.80
37206;BME280;23099;42.636;23.198;2023-04-07T07:52:04;91747.31;;;3.86;49.74
37206;BME280;23099;42.636;23.198;2023-04-07T07:54:30;91741.41;;;4.02;50.03
37206;BME280;23099;42.636;23.198;2023-04-07T07:56:57;91744.13;;;3.93;49.13
37206;BME280;23099;42.636;23.198;2023-04-07T07:59:25;91742.53;;;3.80;49.54
37206;BME280;23099;42.636;23.198;2023-04-07T08:01:51;91741.38;;;3.89;49.82
37206;BME280;23099;42.636;23.198;2023-04-07T08:04:18;91742.75;;;4.08;50.14
37206;BME280;23099;42.636;23.198;2023-04-07T08:06:47;91745.97;;;4.13;49.74
37206;BME280;23099;42.636;23.198;2023-04-07T08:09:14;91747.38;;;4.11;48.91
37206;BME280;23099;42.636;23.198;2023-04-07T08:11:41;91736.69;;;4.07;49.09
37206;BME280;23099;42.636;23.198;2023-04-07T08:14:07;91747.88;;;4.25;49.51
37206;BME280;23099;42.636;23.198;2023-04-07T08:16:36;91748.44;;;4.31;51.09
37206;BME280;23099;42.636;23.198;2023-04-07T08:19:02;91747.91;;;4.37;49.53
37206;BME280;23099;42.636;23.198;2023-04-07T08:21:29;91747.00;;;4.33;48.94
37206;BME280;23099;42.636;23.198;2023-04-07T08:23:56;91748.44;;;4.31;50.22
37206;BME280;23099;42.636;23.198;2023-04-07T08:26:22;91749.31;;;4.35;50.06
37206;BME280;23099;42.636;23.198;2023-04-07T08:28:49;91746.00;;;4.25;48.51
37206;BME280;23099;42.636;23.198;2023-04-07T08:31:16;91753.41;;;4.32;49.64
37206;BME280;23099;42.636;23.198;2023-04-07T08:33:44;91753.28;;;4.29;47.88
37206;BME280;23099;42.636;23.198;2023-04-07T08:36:12;91735.56;;;4.41;48.95
37206;BME280;23099;42.636;23.198;2023-04-07T08:38:38;91742.44;;;4.67;49.42
37206;BME280;23099;42.636;23.198;2023-04-07T08:41:09;91731.09;;;4.90;47.30
37206;BME280;23099;42.636;23.198;2023-04-07T09:17:10;91746.31;;;6.54;42.07
37206;BME280;23099;42.636;23.198;2023-04-07T09:19:37;91748.09;;;6.50;43.77
37206;BME280;23099;42.636;23.198;2023-04-07T09:22:03;91744.84;;;6.41;44.48
37206;BME280;23099;42.636;23.198;2023-04-07T09:24:31;91746.38;;;6.42;44.38
37206;BME280;23099;42.636;23.198;2023-04-07T09:27:08;91738.38;;;6.26;44.92
37206;BME280;23099;42.636;23.198;2023-04-07T09:29:35;91747.28;;;6.18;44.99
37206;BME280;23099;42.636;23.198;2023-04-07T09:32:02;91751.75;;;6.29;45.03
37206;BME280;23099;42.636;23.198;2023-04-07T09:34:32;91749.19;;;6.33;44.19
37206;BME280;23099;42.636;23.198;2023-04-07T09:36:59;91760.38;;;6.26;44.16
37206;BME280;23099;42.636;23.198;2023-04-07T09:39:26;91752.22;;;6.47;44.50
37206;BME280;23099;42.636;23.198;2023-04-07T09:41:53;91747.81;;;6.39;44.88
37206;BME280;23099;42.636;23.198;2023-04-07T09:44:20;91749.59;;;6.63;43.77
37206;BME280;23099;42.636;23.198;2023-04-07T09:46:48;91752.50;;;6.73;43.40
37206;BME280;23099;42.636;23.198;2023-04-07T09:49:15;91747.53;;;7.03;44.33
37206;BME280;23099;42.636;23.198;2023-04-07T09:51:53;91751.97;;;7.31;44.83
37206;BME280;23099;42.636;23.198;2023-04-07T09:54:31;91746.34;;;7.36;42.04
37206;BME280;23099;42.636;23.198;2023-04-07T09:56:58;91748.25;;;7.70;44.49
37206;BME280;23099;42.636;23.198;2023-04-07T09:59:26;91757.13;;;7.59;41.93
37206;BME280;23099;42.636;23.198;2023-04-07T10:01:54;91751.88;;;7.27;42.12
37206;BME280;23099;42.636;23.198;2023-04-07T10:04:21;91755.50;;;6.88;43.05
37206;BME280;23099;42.636;23.198;2023-04-07T10:06:48;91760.19;;;6.94;43.05
37206;BME280;23099;42.636;23.198;2023-04-07T10:09:16;91756.28;;;7.04;42.14
37206;BME280;23099;42.636;23.198;2023-04-07T10:11:44;91750.34;;;7.10;44.26
37206;BME280;23099;42.636;23.198;2023-04-07T10:14:11;91761.25;;;6.90;42.38
37206;BME280;23099;42.636;23.198;2023-04-07T10:16:38;91762.09;;;6.62;43.47
37206;BME280;23099;42.636;23.198;2023-04-07T10:19:07;91764.28;;;6.45;45.10
37206;BME280;23099;42.636;23.198;2023-04-07T10:21:37;91755.44;;;6.41;43.77
37206;BME280;23099;42.636;23.198;2023-04-07T10:24:10;91754.28;;;6.54;44.39
37206;BME280;23099;42.636;23.198;2023-04-07T10:26:46;91759.34;;;6.15;44.65
37206;BME280;23099;42.636;23.198;2023-04-07T10:29:16;91762.72;;;6.00;44.86
37206;BME280;23099;42.636;23.198;2023-04-07T10:31:44;91772.44;;;6.24;45.34
37206;BME280;23099;42.636;23.198;2023-04-07T10:34:12;91758.59;;;6.30;44.54
37206;BME280;23099;42.636;23.198;2023-04-07T10:37:09;91768.38;;;6.42;44.11
37206;BME280;23099;42.636;23.198;2023-04-07T10:39:37;91773.16;;;6.36;43.16
37206;BME280;23099;42.636;23.198;2023-04-07T10:42:05;91767.00;;;6.32;44.24
37206;BME280;23099;42.636;23.198;2023-04-07T10:44:48;91776.41;;;6.30;43.63
37206;BME280;23099;42.636;23.198;2023-04-07T10:47:15;91765.13;;;6.33;44.56
37206;BME280;23099;42.636;23.198;2023-04-07T10:50:14;91771.44;;;6.28;44.15
37206;BME280;23099;42.636;23.198;2023-04-07T10:52:41;91776.41;;;6.30;45.48
37206;BME280;23099;42.636;23.198;2023-04-07T10:55:28;91779.16;;;6.33;44.89
37206;BME280;23099;42.636;23.198;2023-04-07T10:58:22;91771.03;;;6.42;44.37
37206;BME280;23099;42.636;23.198;2023-04-07T11:01:17;91768.16;;;6.47;43.80
37206;BME280;23099;42.636;23.198;2023-04-07T11:04:01;91769.19;;;6.58;45.76
37206;BME280;23099;42.636;23.198;2023-04-07T11:06:29;91771.13;;;6.46;45.16
37206;BME280;23099;42.636;23.198;2023-04-07T11:08:55;91771.19;;;6.33;44.36
37206;BME280;23099;42.636;23.198;2023-04-07T11:11:37;91785.59;;;6.32;44.52
37206;BME280;23099;42.636;23.198;2023-04-07T11:14:05;91775.75;;;6.33;44.46
37206;BME280;23099;42.636;23.198;2023-04-07T11:16:40;91776.16;;;6.35;44.89
37206;BME280;23099;42.636;23.198;2023-04-07T11:19:07;91772.75;;;6.34;44.12
37206;BME280;23099;42.636;23.198;2023-04-07T11:21:34;91770.88;;;6.51;45.04
37206;BME280;23099;42.636;23.198;2023-04-07T11:24:01;91781.00;;;6.61;44.41
37206;BME280;23099;42.636;23.198;2023-04-07T11:26:29;91771.16;;;6.61;43.71
37206;BME280;23099;42.636;23.198;2023-04-07T11:29:02;91779.91;;;6.62;43.23
37206;BME280;23099;42.636;23.198;2023-04-07T11:31:30;91779.47;;;6.60;43.51
37206;BME280;23099;42.636;23.198;2023-04-07T11:33:58;91784.94;;;6.67;44.04
37206;BME280;23099;42.636;23.198;2023-04-07T11:36:26;91781.84;;;6.65;44.08
37206;BME280;23099;42.636;23.198;2023-04-07T11:38:54;91790.44;;;6.74;44.18
37206;BME280;23099;42.636;23.198;2023-04-07T11:41:22;91779.22;;;6.81;44.19
37206;BME280;23099;42.636;23.198;2023-04-07T11:44:02;91783.69;;;6.77;43.74
37206;BME280;23099;42.636;23.198;2023-04-07T11:46:30;91780.66;;;6.78;42.86
37206;BME280;23099;42.636;23.198;2023-04-07T11:49:07;91783.94;;;6.71;43.82
37206;BME280;23099;42.636;23.198;2023-04-07T11:51:35;91780.94;;;6.73;43.50
37206;BME280;23099;42.636;23.198;2023-04-07T11:54:01;91776.41;;;6.89;45.43
37206;BME280;23099;42.636;23.198;2023-04-07T11:56:28;91771.25;;;6.96;42.86
37206;BME280;23099;42.636;23.198;2023-04-07T11:58:55;91770.91;;;6.82;43.96
37206;BME280;23099;42.636;23.198;2023-04-07T12:01:22;91768.59;;;6.96;43.68
37206;BME280;23099;42.636;23.198;2023-04-07T12:03:58;91773.81;;;6.93;44.46
37206;BME280;23099;42.636;23.198;2023-04-07T12:06:26;91778.03;;;7.09;43.63
37206;BME280;23099;42.636;23.198;2023-04-07T12:08:54;91772.13;;;7.00;42.15
37206;BME280;23099;42.636;23.198;2023-04-07T12:11:21;91777.53;;;7.04;43.09
37206;BME280;23099;42.636;23.198;2023-04-07T12:13:49;91778.13;;;6.97;42.87
37206;BME280;23099;42.636;23.198;2023-04-07T12:16:16;91775.81;;;6.96;43.01
37206;BME280;23099;42.636;23.198;2023-04-07T12:18:43;91781.13;;;7.12;44.70
37206;BME280;23099;42.636;23.198;2023-04-07T12:21:11;91777.59;;;7.07;43.08
37206;BME280;23099;42.636;23.198;2023-04-07T12:23:38;91778.97;;;7.17;41.98
37206;BME280;23099;42.636;23.198;2023-04-07T12:26:05;91780.25;;;7.23;43.54
37206;BME280;23099;42.636;23.198;2023-04-07T12:28:32;91774.34;;;7.30;43.29
37206;BME280;23099;42.636;23.198;2023-04-07T12:30:59;91778.19;;;7.48;42.74
37206;BME280;23099;42.636;23.198;2023-04-07T12:33:25;91778.63;;;7.34;42.24
37206;BME280;23099;42.636;23.198;2023-04-07T12:35:52;91781.44;;;7.41;41.83
37206;BME280;23099;42.636;23.198;2023-04-07T12:38:20;91783.06;;;7.46;42.14
37206;BME280;23099;42.636;23.198;2023-04-07T12:40:47;91775.94;;;7.50;43.14
37206;BME280;23099;42.636;23.198;2023-04-07T12:43:13;91780.50;;;7.34;41.03
37206;BME280;23099;42.636;23.198;2023-04-07T12:45:40;91780.31;;;7.42;40.92
37206;BME280;23099;42.636;23.198;2023-04-07T12:48:07;91768.28;;;7.64;41.57
37206;BME280;23099;42.636;23.198;2023-04-07T12:50:34;91764.16;;;7.86;42.08
37206;BME280;23099;42.636;23.198;2023-04-07T12:53:01;91780.09;;;8.21;42.61
37206;BME280;23099;42.636;23.198;2023-04-07T12:55:31;91764.81;;;8.37;41.28
37206;BME280;23099;42.636;23.198;2023-04-07T12:57:59;91770.69;;;8.27;41.31
37206;BME280;23099;42.636;23.198;2023-04-07T13:00:26;91765.44;;;8.31;42.29
37206;BME280;23099;42.636;23.198;2023-04-07T13:02:53;91771.66;;;8.35;41.26
37206;BME280;23099;42.636;23.198;2023-04-07T13:05:19;91771.47;;;8.28;40.15
37206;BME280;23099;42.636;23.198;2023-04-07T13:07:46;91772.47;;;8.20;41.15
37206;BME280;23099;42.636;23.198;2023-04-07T13:10:13;91765.66;;;8.22;40.13
37206;BME280;23099;42.636;23.198;2023-04-07T13:12:41;91767.00;;;8.32;39.92
37206;BME280;23099;42.636;23.198;2023-04-07T13:15:07;91770.78;;;8.31;42.96
37206;BME280;23099;42.636;23.198;2023-04-07T13:17:34;91771.88;;;8.30;43.47
37206;BME280;23099;42.636;23.198;2023-04-07T13:20:03;91765.91;;;8.33;45.34
37206;BME280;23099;42.636;23.198;2023-04-07T13:22:30;91762.28;;;8.25;45.14
37206;BME280;23099;42.636;23.198;2023-04-07T13:24:57;91773.13;;;8.32;42.26
37206;BME280;23099;42.636;23.198;2023-04-07T13:27:24;91773.00;;;8.29;42.10
37206;BME280;23099;42.636;23.198;2023-04-07T13:29:53;91779.53;;;8.31;40.41
37206;BME280;23099;42.636;23.198;2023-04-07T13:32:19;91776.09;;;8.31;41.63
37206;BME280;23099;42.636;23.198;2023-04-07T13:34:46;91774.00;;;8.21;44.75
37206;BME280;23099;42.636;23.198;2023-04-07T13:37:13;91779.94;;;8.14;45.81
37206;BME280;23099;42.636;23.198;2023-04-07T13:39:40;91789.88;;;7.98;45.36
37206;BME280;23099;42.636;23.198;2023-04-07T13:42:07;91787.13;;;7.94;47.07
37206;BME280;23099;42.636;23.198;2023-04-07T13:44:34;91788.63;;;7.92;47.64
37206;BME280;23099;42.636;23.198;2023-04-07T13:47:02;91794.16;;;7.67;49.15
37206;BME280;23099;42.636;23.198;2023-04-07T13:49:29;91797.72;;;7.40;49.71
37206;BME280;23099;42.636;23.198;2023-04-07T13:51:56;91802.69;;;7.41;50.41
37206;BME280;23099;42.636;23.198;2023-04-07T13:54:22;91796.19;;;7.23;50.95
37206;BME280;23099;42.636;23.198;2023-04-07T13:56:49;91807.69;;;7.12;50.66